Terminal Aerodrome Forecast
Issued by NWS

Home | Current Version | Previous Version | Text Only | Print | Product List | Glossary On
Versions: 1 2 3 4 5 6 7 8 9 10 11 12 13 14 15
343
FTUS45 KTFX 291849 AAA
TAFGTF
TAF AMD
KGTF 291849Z 2919/3018 23011KT P6SM SCT050 BKN100
      TEMPO 2919/2921 24015G21KT -SHRA BKN060=

USA.gov is the U.S. government's official web portal to all federal, state and local government web resources and services.